Hundvaag 1 weather for Aug 2003
Month no. 194
Obs.
Da.
Temp. Dew Point Precip. Wind
Speed
Wind gusts Cloud cover Press. Humidity Wind dir. Sunny OPT
01.08.2003 16,4   2,5 5,0   0 1026,1 100,0 135,0   67,5 %
02.08.2003 17,4   12,2 3,0   1 1013,9 88,0     62,5 %
03.08.2003 12,2   5,1 3,0   3 1016,4 72,0 247,5 1 70,0 %
04.08.2003 14,8   0,1 2,0   0 1018,3 88,0     67,5 %
05.08.2003 14,9   0,0 1,0   9 1020,5 88,0   1 90,0 %
06.08.2003 13,1   0,0 3,0   8 1020,0 94,0   1 87,5 %
07.08.2003 14,7   0,0 1,0   10 1018,4 94,0   1 92,5 %
08.08.2003 17,1   0,0 5,0   0 1017,2 94,0 0,0 1 67,5 %
09.08.2003 14,7   0,0 7,0   10 1016,0 73,0 225,0 1 90,0 %
10.08.2003 15,4   0,0 5,0   10 1014,8 64,0 180,0 1 92,5 %
11.08.2003 18,6   1,0 3,0   0 1014,6 83,0   1 72,5 %
12.08.2003 18,6   0,0 13,0   0 1014,8 88,0 337,5 1 65,0 %
13.08.2003 15,6   0,0 8,0   0 1012,0 82,0 337,5   65,0 %
14.08.2003 14,5   21,3 1,0   0 1007,2 94,0 180,0 1 50,0 %
15.08.2003 15,2   4,0 26,0   0 1009,1 82,0 315,0   50,0 %
16.08.2003 14,0   1,3 4,0   1 1010,8 87,0 337,5 1 67,5 %
17.08.2003 11,1   0,0 2,0   10 1012,7 83,0 45,0 1 90,0 %
18.08.2003 13,6   0,0 5,0   0 1013,5 94,0 112,5 1 65,0 %
19.08.2003 13,0   7,0 8,0   8 1010,3 94,0 135,0 1 77,5 %
20.08.2003 14,0   10,6 12,0   0 1010,7 82,0 270,0   52,5 %
21.08.2003 13,8   7,0 7,0   0 1010,5 100,0 202,5 1 60,0 %
22.08.2003 15,0   30,6 10,0   0 1003,7 100,0 270,0   40,0 %
23.08.2003 15,6   12,1 17,0   4 1009,6 82,0 292,5 1 60,0 %
24.08.2003 18,0   0,0 13,0   9 1014,7 82,0 337,5 1 87,5 %
25.08.2003 13,9   0,0 3,0   0 1015,7 100,0   1 67,5 %
26.08.2003 12,8   0,0 6,0   7 1013,5 94,0 0,0 1 82,5 %
27.08.2003 11,6   0,0 14,0   4 1011,3 71,0 0,0 1 67,5 %
28.08.2003 7,8   0,0 2,0   9 1009,4 93,0 225,0 1 85,0 %
29.08.2003 8,6   0,0 1,0   10 1009,2 93,0   1 87,5 %
30.08.2003 12,6   0,1 2,0   6 1009,5 94,0 157,5 1 82,5 %
31.08.2003 9,0   0,0 8,0   10 1010,6 88,0 0,0 1 82,5 %
Avrg/Sum 14,1   114,9 6,5   4,2 1013,4 87,8 188,8 24 72,4 %